Hallam, Nebraska
Current Conditions -  °F | °C
As of 3:55 AM on Saturday 29 Nov 2014 (Local Time) from KBIE Reporting Station
Clear Clear  
Wind Chill: 35°   Ceiling: Unl
Heat Index: 39°   Visibility: 10mi
Dew Point: 33°   Wind: 6mph
Humidity: 79%   Direction: 170°S
Pressure: 29.61"   Gusts: NA
Location:  40.54°N, 96.79°W
Report Text: KBIE 290955Z AUTO 17005KT 10SM CLR 04/01 A2961 RMK AO2 T00400007
Loading
Personal Weather Stations






























Interactive Weather Map New forecast layout! Learn more

10-Day Weather Forecast

Advertisements
Track Severe Weather on mobile